sensor_id;sensor_type;location;lat;lon;timestamp;pressure;altitude;pressure_sealevel;temperature;humidity
51315;BME280;65787;59.922;10.742;2023-05-03T00:01:00;101542.44;;;12.19;30.96
51315;BME280;65787;59.922;10.742;2023-05-03T00:03:26;101542.78;;;12.16;31.29
51315;BME280;65787;59.922;10.742;2023-05-03T00:05:52;101542.31;;;12.12;31.27
51315;BME280;65787;59.922;10.742;2023-05-03T00:08:17;101543.03;;;12.06;31.48
51315;BME280;65787;59.922;10.742;2023-05-03T00:10:42;101550.78;;;12.01;31.80
51315;BME280;65787;59.922;10.742;2023-05-03T00:13:08;101550.28;;;11.97;31.16
51315;BME280;65787;59.922;10.742;2023-05-03T00:15:33;101563.09;;;11.95;31.66
51315;BME280;65787;59.922;10.742;2023-05-03T00:17:58;101559.75;;;11.93;31.58
51315;BME280;65787;59.922;10.742;2023-05-03T00:20:23;101563.25;;;11.94;31.26
51315;BME280;65787;59.922;10.742;2023-05-03T00:22:49;101559.94;;;11.84;31.52
51315;BME280;65787;59.922;10.742;2023-05-03T00:25:14;101565.31;;;11.75;31.81
51315;BME280;65787;59.922;10.742;2023-05-03T00:27:40;101562.63;;;11.75;31.67
51315;BME280;65787;59.922;10.742;2023-05-03T00:30:05;101561.16;;;11.73;31.53
51315;BME280;65787;59.922;10.742;2023-05-03T00:32:30;101571.25;;;11.71;31.69
51315;BME280;65787;59.922;10.742;2023-05-03T00:34:57;101570.38;;;11.78;31.45
51315;BME280;65787;59.922;10.742;2023-05-03T00:37:22;101568.19;;;11.82;31.38
51315;BME280;65787;59.922;10.742;2023-05-03T00:39:48;101570.06;;;11.73;31.58
51315;BME280;65787;59.922;10.742;2023-05-03T00:42:13;101575.47;;;11.65;31.43
51315;BME280;65787;59.922;10.742;2023-05-03T00:44:39;101585.41;;;11.65;31.59
51315;BME280;65787;59.922;10.742;2023-05-03T00:47:04;101581.34;;;11.60;31.54
51315;BME280;65787;59.922;10.742;2023-05-03T00:49:31;101581.34;;;11.60;31.54
51315;BME280;65787;59.922;10.742;2023-05-03T00:51:57;101580.88;;;11.57;31.00
51315;BME280;65787;59.922;10.742;2023-05-03T00:54:25;101590.63;;;11.58;31.17
51315;BME280;65787;59.922;10.742;2023-05-03T00:56:50;101584.41;;;11.57;31.01
51315;BME280;65787;59.922;10.742;2023-05-03T00:59:16;101592.47;;;11.57;31.58
51315;BME280;65787;59.922;10.742;2023-05-03T01:01:42;101597.88;;;11.57;31.80
51315;BME280;65787;59.922;10.742;2023-05-03T01:04:07;101593.81;;;11.53;31.58
51315;BME280;65787;59.922;10.742;2023-05-03T01:14:28;101592.19;;;11.44;32.28
51315;BME280;65787;59.922;10.742;2023-05-03T01:16:55;101594.00;;;11.52;31.64
51315;BME280;65787;59.922;10.742;2023-05-03T01:19:27;101594.34;;;11.49;31.87
51315;BME280;65787;59.922;10.742;2023-05-03T01:22:09;101594.53;;;11.39;32.14
51315;BME280;65787;59.922;10.742;2023-05-03T01:24:37;101601.09;;;11.36;31.94
51315;BME280;65787;59.922;10.742;2023-05-03T01:27:04;101604.81;;;11.35;32.69
51315;BME280;65787;59.922;10.742;2023-05-03T01:29:29;101604.31;;;11.32;31.91
51315;BME280;65787;59.922;10.742;2023-05-03T01:31:56;101609.00;;;11.30;31.92
51315;BME280;65787;59.922;10.742;2023-05-03T01:36:58;101611.53;;;11.23;32.42
51315;BME280;65787;59.922;10.742;2023-05-03T01:39:34;101610.88;;;11.13;32.05
51315;BME280;65787;59.922;10.742;2023-05-03T01:42:02;101609.19;;;11.12;32.65
51315;BME280;65787;59.922;10.742;2023-05-03T01:44:28;101614.22;;;11.07;32.15
51315;BME280;65787;59.922;10.742;2023-05-03T01:46:55;101620.13;;;11.02;32.14
51315;BME280;65787;59.922;10.742;2023-05-03T01:49:21;101623.66;;;11.11;31.99
51315;BME280;65787;59.922;10.742;2023-05-03T01:51:46;101626.66;;;11.16;32.20
51315;BME280;65787;59.922;10.742;2023-05-03T01:54:11;101628.84;;;11.20;32.77
51315;BME280;65787;59.922;10.742;2023-05-03T01:56:37;101630.53;;;11.30;32.25
51315;BME280;65787;59.922;10.742;2023-05-03T01:59:02;101633.72;;;11.25;31.88
51315;BME280;65787;59.922;10.742;2023-05-03T02:01:27;101629.69;;;11.21;31.63
51315;BME280;65787;59.922;10.742;2023-05-03T02:03:53;101633.88;;;11.23;31.76
51315;BME280;65787;59.922;10.742;2023-05-03T02:06:18;101634.88;;;11.31;31.82
51315;BME280;65787;59.922;10.742;2023-05-03T02:08:43;101641.94;;;11.32;31.46
51315;BME280;65787;59.922;10.742;2023-05-03T02:11:08;101640.13;;;11.24;31.67
51315;BME280;65787;59.922;10.742;2023-05-03T02:13:36;101641.28;;;11.13;31.73
51315;BME280;65787;59.922;10.742;2023-05-03T02:16:01;101644.47;;;11.00;32.21
51315;BME280;65787;59.922;10.742;2023-05-03T02:18:26;101652.34;;;10.94;32.04
51315;BME280;65787;59.922;10.742;2023-05-03T02:20:55;101645.63;;;10.81;32.24
51315;BME280;65787;59.922;10.742;2023-05-03T02:23:21;101660.41;;;10.77;32.00
51315;BME280;65787;59.922;10.742;2023-05-03T02:25:46;101651.34;;;10.78;32.33
51315;BME280;65787;59.922;10.742;2023-05-03T02:28:11;101650.50;;;10.78;32.42
51315;BME280;65787;59.922;10.742;2023-05-03T02:30:36;101645.13;;;10.78;32.10
51315;BME280;65787;59.922;10.742;2023-05-03T02:33:02;101643.28;;;10.70;32.28
51315;BME280;65787;59.922;10.742;2023-05-03T02:35:27;101648.50;;;10.80;32.07
51315;BME280;65787;59.922;10.742;2023-05-03T02:37:52;101647.66;;;10.79;32.33
51315;BME280;65787;59.922;10.742;2023-05-03T02:40:18;101647.81;;;10.86;32.67
51315;BME280;65787;59.922;10.742;2023-05-03T02:42:43;101647.16;;;10.84;32.38
51315;BME280;65787;59.922;10.742;2023-05-03T02:45:09;101645.28;;;10.76;32.17
51315;BME280;65787;59.922;10.742;2023-05-03T02:47:34;101647.47;;;10.64;32.28
51315;BME280;65787;59.922;10.742;2023-05-03T02:49:59;101657.03;;;10.59;32.54
51315;BME280;65787;59.922;10.742;2023-05-03T02:52:25;101650.47;;;10.53;32.73
51315;BME280;65787;59.922;10.742;2023-05-03T02:54:50;101653.63;;;10.49;32.69
51315;BME280;65787;59.922;10.742;2023-05-03T02:57:16;101654.13;;;10.44;32.63
51315;BME280;65787;59.922;10.742;2023-05-03T02:59:41;101663.19;;;10.43;32.57
51315;BME280;65787;59.922;10.742;2023-05-03T03:02:06;101661.81;;;10.39;32.65
51315;BME280;65787;59.922;10.742;2023-05-03T03:04:31;101664.16;;;10.34;32.96
51315;BME280;65787;59.922;10.742;2023-05-03T03:06:57;101663.47;;;10.32;33.28
51315;BME280;65787;59.922;10.742;2023-05-03T03:09:22;101668.84;;;10.32;33.13
51315;BME280;65787;59.922;10.742;2023-05-03T03:11:49;101673.00;;;10.26;33.05
51315;BME280;65787;59.922;10.742;2023-05-03T03:14:14;101673.81;;;10.26;33.05
51315;BME280;65787;59.922;10.742;2023-05-03T03:16:40;101676.66;;;10.25;33.01
51315;BME280;65787;59.922;10.742;2023-05-03T03:19:05;101678.50;;;10.24;33.17
51315;BME280;65787;59.922;10.742;2023-05-03T03:21:30;101684.53;;;10.18;33.29
51315;BME280;65787;59.922;10.742;2023-05-03T03:23:56;101685.22;;;10.20;33.09
51315;BME280;65787;59.922;10.742;2023-05-03T03:26:22;101686.88;;;10.21;33.06
51315;BME280;65787;59.922;10.742;2023-05-03T03:28:48;101693.78;;;10.24;33.08
51315;BME280;65787;59.922;10.742;2023-05-03T03:31:14;101697.16;;;10.26;33.04
51315;BME280;65787;59.922;10.742;2023-05-03T03:33:39;101692.25;;;10.21;32.56
51315;BME280;65787;59.922;10.742;2023-05-03T03:36:04;101691.41;;;10.21;33.40
51315;BME280;65787;59.922;10.742;2023-05-03T03:38:32;101694.59;;;10.16;33.29
51315;BME280;65787;59.922;10.742;2023-05-03T03:40:57;101694.94;;;10.21;33.26
51315;BME280;65787;59.922;10.742;2023-05-03T03:43:22;101689.91;;;10.18;33.49
51315;BME280;65787;59.922;10.742;2023-05-03T03:45:47;101699.97;;;10.16;33.39
51315;BME280;65787;59.922;10.742;2023-05-03T03:48:13;101691.25;;;10.14;33.78
51315;BME280;65787;59.922;10.742;2023-05-03T03:50:38;101695.75;;;10.14;33.83
51315;BME280;65787;59.922;10.742;2023-05-03T03:53:03;101696.09;;;10.11;33.77
51315;BME280;65787;59.922;10.742;2023-05-03T03:55:30;101699.59;;;10.11;34.03
51315;BME280;65787;59.922;10.742;2023-05-03T03:57:56;101703.34;;;10.18;33.81
51315;BME280;65787;59.922;10.742;2023-05-03T04:00:21;101698.94;;;10.17;34.02
51315;BME280;65787;59.922;10.742;2023-05-03T04:02:47;101696.94;;;10.19;33.93
51315;BME280;65787;59.922;10.742;2023-05-03T04:05:12;101698.63;;;10.20;33.69
51315;BME280;65787;59.922;10.742;2023-05-03T04:07:38;101707.38;;;10.22;33.99
51315;BME280;65787;59.922;10.742;2023-05-03T04:10:03;101703.63;;;10.15;34.43
51315;BME280;65787;59.922;10.742;2023-05-03T04:12:29;101716.75;;;10.18;34.07
51315;BME280;65787;59.922;10.742;2023-05-03T04:14:54;101716.41;;;10.21;34.29
51315;BME280;65787;59.922;10.742;2023-05-03T04:17:21;101721.63;;;10.23;34.05
51315;BME280;65787;59.922;10.742;2023-05-03T04:19:46;101722.16;;;10.26;34.17
51315;BME280;65787;59.922;10.742;2023-05-03T04:22:11;101723.84;;;10.27;34.18
51315;BME280;65787;59.922;10.742;2023-05-03T04:24:37;101716.47;;;10.30;34.28
51315;BME280;65787;59.922;10.742;2023-05-03T04:27:03;101726.75;;;10.34;34.07
51315;BME280;65787;59.922;10.742;2023-05-03T04:29:28;101729.63;;;10.33;33.79
51315;BME280;65787;59.922;10.742;2023-05-03T04:31:54;101732.88;;;10.26;34.13
51315;BME280;65787;59.922;10.742;2023-05-03T04:34:19;101732.06;;;10.26;34.04
51315;BME280;65787;59.922;10.742;2023-05-03T04:36:45;101738.09;;;10.28;34.26
51315;BME280;65787;59.922;10.742;2023-05-03T04:39:10;101753.78;;;10.33;34.10
51315;BME280;65787;59.922;10.742;2023-05-03T04:41:37;101744.56;;;10.35;34.17
51315;BME280;65787;59.922;10.742;2023-05-03T04:44:03;101746.06;;;10.38;34.28
51315;BME280;65787;59.922;10.742;2023-05-03T04:46:29;101747.25;;;10.43;33.96
51315;BME280;65787;59.922;10.742;2023-05-03T04:48:55;101745.78;;;10.49;33.67
51315;BME280;65787;59.922;10.742;2023-05-03T04:51:20;101751.00;;;10.51;33.79
51315;BME280;65787;59.922;10.742;2023-05-03T04:53:47;101750.00;;;10.52;33.72
51315;BME280;65787;59.922;10.742;2023-05-03T04:56:12;101750.69;;;10.54;33.79
51315;BME280;65787;59.922;10.742;2023-05-03T04:58:37;101761.97;;;10.65;33.69
51315;BME280;65787;59.922;10.742;2023-05-03T05:01:03;101756.13;;;10.70;33.46
51315;BME280;65787;59.922;10.742;2023-05-03T05:03:28;101763.00;;;10.73;33.68
51315;BME280;65787;59.922;10.742;2023-05-03T05:05:55;101756.97;;;10.79;33.37
51315;BME280;65787;59.922;10.742;2023-05-03T05:08:20;101760.22;;;10.91;33.65
51315;BME280;65787;59.922;10.742;2023-05-03T05:10:45;101761.25;;;10.98;33.54
51315;BME280;65787;59.922;10.742;2023-05-03T05:13:11;101762.28;;;11.05;34.06
51315;BME280;65787;59.922;10.742;2023-05-03T05:15:36;101768.63;;;11.12;33.31
51315;BME280;65787;59.922;10.742;2023-05-03T05:18:01;101763.13;;;11.22;33.14
51315;BME280;65787;59.922;10.742;2023-05-03T05:20:27;101774.72;;;11.22;33.61
51315;BME280;65787;59.922;10.742;2023-05-03T05:22:52;101776.91;;;11.19;33.51
51315;BME280;65787;59.922;10.742;2023-05-03T05:25:18;101784.13;;;11.27;33.70
51315;BME280;65787;59.922;10.742;2023-05-03T05:27:43;101783.31;;;11.34;33.27
51315;BME280;65787;59.922;10.742;2023-05-03T05:30:08;101790.53;;;11.42;33.57
51315;BME280;65787;59.922;10.742;2023-05-03T05:32:34;101793.75;;;11.54;32.94
51315;BME280;65787;59.922;10.742;2023-05-03T05:34:59;101793.75;;;11.54;32.80
51315;BME280;65787;59.922;10.742;2023-05-03T05:37:25;101799.97;;;11.54;32.93
51315;BME280;65787;59.922;10.742;2023-05-03T05:39:51;101788.22;;;11.55;32.53
51315;BME280;65787;59.922;10.742;2023-05-03T05:42:17;101794.44;;;11.56;32.92
51315;BME280;65787;59.922;10.742;2023-05-03T05:44:42;101798.81;;;11.65;32.65
51315;BME280;65787;59.922;10.742;2023-05-03T05:47:08;101792.25;;;11.68;32.78
51315;BME280;65787;59.922;10.742;2023-05-03T05:49:34;101788.91;;;11.74;32.63
51315;BME280;65787;59.922;10.742;2023-05-03T05:51:59;101797.28;;;11.79;32.40
51315;BME280;65787;59.922;10.742;2023-05-03T05:54:25;101798.47;;;11.76;32.58
51315;BME280;65787;59.922;10.742;2023-05-03T05:56:50;101795.94;;;11.75;32.70
51315;BME280;65787;59.922;10.742;2023-05-03T05:59:15;101806.53;;;11.85;32.32
51315;BME280;65787;59.922;10.742;2023-05-03T06:01:41;101800.84;;;11.96;32.41
51315;BME280;65787;59.922;10.742;2023-05-03T06:04:09;101813.78;;;12.09;32.11
51315;BME280;65787;59.922;10.742;2023-05-03T06:06:35;101807.72;;;12.15;31.71
51315;BME280;65787;59.922;10.742;2023-05-03T06:09:00;101807.38;;;12.18;31.99
51315;BME280;65787;59.922;10.742;2023-05-03T06:11:26;101814.78;;;12.24;31.83
51315;BME280;65787;59.922;10.742;2023-05-03T06:13:51;101818.47;;;12.31;31.46
51315;BME280;65787;59.922;10.742;2023-05-03T06:16:16;101818.78;;;12.36;31.54
51315;BME280;65787;59.922;10.742;2023-05-03T06:18:41;101821.81;;;12.42;31.45
51315;BME280;65787;59.922;10.742;2023-05-03T06:21:07;101821.47;;;12.45;31.52
51315;BME280;65787;59.922;10.742;2023-05-03T06:23:33;101826.31;;;12.57;30.89
51315;BME280;65787;59.922;10.742;2023-05-03T06:25:59;101820.06;;;12.65;31.13
51315;BME280;65787;59.922;10.742;2023-05-03T06:28:24;101824.25;;;12.68;31.11
51315;BME280;65787;59.922;10.742;2023-05-03T06:30:49;101827.09;;;12.74;31.25
51315;BME280;65787;59.922;10.742;2023-05-03T06:33:15;101833.66;;;12.80;31.67
51315;BME280;65787;59.922;10.742;2023-05-03T06:35:41;101830.09;;;12.79;31.81
51315;BME280;65787;59.922;10.742;2023-05-03T06:38:07;101830.47;;;12.76;31.58
51315;BME280;65787;59.922;10.742;2023-05-03T06:40:33;101836.19;;;12.82;31.56
51315;BME280;65787;59.922;10.742;2023-05-03T06:42:58;101830.75;;;12.90;31.57
51315;BME280;65787;59.922;10.742;2023-05-03T06:45:23;101840.53;;;12.91;31.65
51315;BME280;65787;59.922;10.742;2023-05-03T06:47:49;101828.84;;;12.98;31.04
51315;BME280;65787;59.922;10.742;2023-05-03T06:50:14;101830.00;;;13.04;31.04
51315;BME280;65787;59.922;10.742;2023-05-03T06:52:39;101830.78;;;13.13;31.33
51315;BME280;65787;59.922;10.742;2023-05-03T06:55:05;101836.16;;;13.13;31.83
51315;BME280;65787;59.922;10.742;2023-05-03T06:57:31;101834.44;;;13.20;31.40
51315;BME280;65787;59.922;10.742;2023-05-03T06:59:56;101844.34;;;13.28;31.87
51315;BME280;65787;59.922;10.742;2023-05-03T07:02:21;101835.44;;;13.35;32.01
51315;BME280;65787;59.922;10.742;2023-05-03T07:04:47;101835.44;;;13.35;31.96
51315;BME280;65787;59.922;10.742;2023-05-03T07:07:12;101840.94;;;13.42;31.63
51315;BME280;65787;59.922;10.742;2023-05-03T07:09:39;101842.06;;;13.48;31.96
51315;BME280;65787;59.922;10.742;2023-05-03T07:12:05;101843.69;;;13.57;31.54
51315;BME280;65787;59.922;10.742;2023-05-03T07:14:30;101839.81;;;13.60;31.65
51315;BME280;65787;59.922;10.742;2023-05-03T07:16:55;101849.22;;;13.64;31.23
51315;BME280;65787;59.922;10.742;2023-05-03T07:19:21;101845.97;;;13.68;31.25
51315;BME280;65787;59.922;10.742;2023-05-03T07:21:46;101847.50;;;13.71;30.23
51315;BME280;65787;59.922;10.742;2023-05-03T07:24:11;101848.25;;;13.80;30.24
51315;BME280;65787;59.922;10.742;2023-05-03T07:26:37;101851.25;;;13.85;30.11
51315;BME280;65787;59.922;10.742;2023-05-03T07:29:02;101860.41;;;13.84;30.03
51315;BME280;65787;59.922;10.742;2023-05-03T07:31:27;101851.47;;;13.98;30.34
51315;BME280;65787;59.922;10.742;2023-05-03T07:33:53;101851.97;;;14.02;29.55
51315;BME280;65787;59.922;10.742;2023-05-03T07:36:18;101848.25;;;14.03;29.16
51315;BME280;65787;59.922;10.742;2023-05-03T07:38:43;101855.44;;;14.10;29.31
51315;BME280;65787;59.922;10.742;2023-05-03T07:41:08;101853.69;;;14.18;29.42
51315;BME280;65787;59.922;10.742;2023-05-03T07:43:34;101842.41;;;14.14;29.07
51315;BME280;65787;59.922;10.742;2023-05-03T07:45:59;101841.22;;;14.31;29.57
51315;BME280;65787;59.922;10.742;2023-05-03T07:48:25;101833.03;;;14.40;29.78
51315;BME280;65787;59.922;10.742;2023-05-03T07:50:51;101833.50;;;14.43;29.71
51315;BME280;65787;59.922;10.742;2023-05-03T07:53:16;101839.28;;;14.55;29.36
51315;BME280;65787;59.922;10.742;2023-05-03T07:55:41;101838.84;;;14.66;29.29
51315;BME280;65787;59.922;10.742;2023-05-03T07:58:07;101836.56;;;14.55;28.48
51315;BME280;65787;59.922;10.742;2023-05-03T08:00:32;101837.25;;;14.57;27.84
51315;BME280;65787;59.922;10.742;2023-05-03T08:02:58;101840.06;;;14.64;27.95
51315;BME280;65787;59.922;10.742;2023-05-03T08:05:23;101847.41;;;14.70;27.22
51315;BME280;65787;59.922;10.742;2023-05-03T08:07:49;101850.41;;;14.90;27.28
51315;BME280;65787;59.922;10.742;2023-05-03T08:10:14;101850.75;;;15.02;27.07
51315;BME280;65787;59.922;10.742;2023-05-03T08:12:41;101849.16;;;15.07;27.16
51315;BME280;65787;59.922;10.742;2023-05-03T08:15:06;101843.16;;;15.27;26.54
51315;BME280;65787;59.922;10.742;2023-05-03T08:17:33;101842.25;;;15.41;25.16
51315;BME280;65787;59.922;10.742;2023-05-03T08:20:03;101846.66;;;15.64;25.06
51315;BME280;65787;59.922;10.742;2023-05-03T08:22:29;101847.31;;;15.87;24.22
51315;BME280;65787;59.922;10.742;2023-05-03T08:24:55;101845.16;;;16.04;24.15
51315;BME280;65787;59.922;10.742;2023-05-03T08:27:20;101844.44;;;16.17;24.36
51315;BME280;65787;59.922;10.742;2023-05-03T08:29:45;101846.03;;;16.33;24.43
51315;BME280;65787;59.922;10.742;2023-05-03T08:32:11;101849.19;;;16.43;24.39
51315;BME280;65787;59.922;10.742;2023-05-03T08:34:36;101848.44;;;16.56;24.17
51315;BME280;65787;59.922;10.742;2023-05-03T08:37:02;101839.53;;;16.62;22.90
51315;BME280;65787;59.922;10.742;2023-05-03T08:39:29;101838.97;;;16.74;22.98
51315;BME280;65787;59.922;10.742;2023-05-03T08:41:55;101840.94;;;16.87;24.28
51315;BME280;65787;59.922;10.742;2023-05-03T08:44:21;101842.03;;;16.99;23.70
51315;BME280;65787;59.922;10.742;2023-05-03T08:46:49;101846.66;;;17.05;24.11
51315;BME280;65787;59.922;10.742;2023-05-03T08:49:18;101839.59;;;17.17;22.73
51315;BME280;65787;59.922;10.742;2023-05-03T08:51:43;101835.25;;;17.36;22.84
51315;BME280;65787;59.922;10.742;2023-05-03T08:54:14;101844.50;;;17.62;23.18
51315;BME280;65787;59.922;10.742;2023-05-03T08:56:40;101833.66;;;17.75;22.10
51315;BME280;65787;59.922;10.742;2023-05-03T08:59:06;101847.72;;;18.06;21.83
51315;BME280;65787;59.922;10.742;2023-05-03T09:01:34;101834.50;;;18.43;22.50
51315;BME280;65787;59.922;10.742;2023-05-03T09:03:59;101830.84;;;18.75;21.71
51315;BME280;65787;59.922;10.742;2023-05-03T09:06:25;101832.22;;;19.05;21.11
51315;BME280;65787;59.922;10.742;2023-05-03T09:08:51;101830.75;;;19.41;21.56
51315;BME280;65787;59.922;10.742;2023-05-03T09:11:23;101824.06;;;19.43;20.39
51315;BME280;65787;59.922;10.742;2023-05-03T09:13:52;101834.84;;;19.63;20.84
51315;BME280;65787;59.922;10.742;2023-05-03T09:16:21;101841.28;;;19.69;19.98
51315;BME280;65787;59.922;10.742;2023-05-03T09:18:57;101844.44;;;19.72;21.34
51315;BME280;65787;59.922;10.742;2023-05-03T09:21:23;101846.72;;;19.76;20.96
51315;BME280;65787;59.922;10.742;2023-05-03T09:23:48;101842.34;;;19.75;20.52
51315;BME280;65787;59.922;10.742;2023-05-03T09:26:25;101843.16;;;19.68;19.34
51315;BME280;65787;59.922;10.742;2023-05-03T09:28:51;101840.84;;;19.72;21.12
51315;BME280;65787;59.922;10.742;2023-05-03T09:31:17;101843.56;;;19.72;20.12
51315;BME280;65787;59.922;10.742;2023-05-03T09:33:42;101848.22;;;19.65;21.09
51315;BME280;65787;59.922;10.742;2023-05-03T09:36:08;101841.03;;;19.77;19.87
51315;BME280;65787;59.922;10.742;2023-05-03T09:38:34;101849.19;;;20.09;19.96
51315;BME280;65787;59.922;10.742;2023-05-03T09:41:00;101843.53;;;20.29;20.41
51315;BME280;65787;59.922;10.742;2023-05-03T09:43:27;101848.19;;;20.47;19.91
51315;BME280;65787;59.922;10.742;2023-05-03T09:45:52;101850.34;;;20.63;21.10
51315;BME280;65787;59.922;10.742;2023-05-03T09:48:31;101844.44;;;20.66;18.86
51315;BME280;65787;59.922;10.742;2023-05-03T09:50:56;101845.34;;;20.97;19.05
51315;BME280;65787;59.922;10.742;2023-05-03T09:53:21;101841.31;;;21.00;19.02
51315;BME280;65787;59.922;10.742;2023-05-03T09:55:47;101840.72;;;20.79;18.23
51315;BME280;65787;59.922;10.742;2023-05-03T09:58:14;101855.59;;;20.65;18.71
51315;BME280;65787;59.922;10.742;2023-05-03T10:00:42;101852.47;;;20.61;18.89
51315;BME280;65787;59.922;10.742;2023-05-03T10:03:11;101850.41;;;20.57;19.19
51315;BME280;65787;59.922;10.742;2023-05-03T10:05:39;101856.31;;;20.54;18.71
51315;BME280;65787;59.922;10.742;2023-05-03T10:08:06;101862.34;;;20.37;18.42
51315;BME280;65787;59.922;10.742;2023-05-03T10:10:31;101859.00;;;20.35;18.37
51315;BME280;65787;59.922;10.742;2023-05-03T10:12:58;101852.13;;;20.33;18.58
51315;BME280;65787;59.922;10.742;2023-05-03T10:15:24;101853.31;;;20.37;19.54
51315;BME280;65787;59.922;10.742;2023-05-03T10:17:53;101855.66;;;20.33;18.90
51315;BME280;65787;59.922;10.742;2023-05-03T10:20:23;101863.28;;;20.49;18.72
51315;BME280;65787;59.922;10.742;2023-05-03T10:25:28;101858.31;;;20.65;19.72
51315;BME280;65787;59.922;10.742;2023-05-03T10:28:00;101860.72;;;20.55;20.06
51315;BME280;65787;59.922;10.742;2023-05-03T10:32:55;101857.34;;;20.34;19.55
51315;BME280;65787;59.922;10.742;2023-05-03T10:35:20;101870.66;;;20.24;18.94
51315;BME280;65787;59.922;10.742;2023-05-03T10:37:50;101874.84;;;20.26;20.44
51315;BME280;65787;59.922;10.742;2023-05-03T10:40:16;101866.97;;;20.37;21.91
51315;BME280;65787;59.922;10.742;2023-05-03T10:42:48;101866.38;;;20.35;20.08
51315;BME280;65787;59.922;10.742;2023-05-03T10:50:30;101873.88;;;20.58;19.80
51315;BME280;65787;59.922;10.742;2023-05-03T10:52:55;101874.09;;;20.81;19.95
51315;BME280;65787;59.922;10.742;2023-05-03T10:55:21;101877.44;;;20.83;19.48
51315;BME280;65787;59.922;10.742;2023-05-03T10:57:48;101878.03;;;20.85;20.92
51315;BME280;65787;59.922;10.742;2023-05-03T11:00:33;101877.75;;;20.94;19.74
51315;BME280;65787;59.922;10.742;2023-05-03T11:05:26;101872.53;;;21.22;20.75
51315;BME280;65787;59.922;10.742;2023-05-03T11:08:06;101878.72;;;21.78;18.96
51315;BME280;65787;59.922;10.742;2023-05-03T11:10:31;101884.16;;;22.20;17.40
51315;BME280;65787;59.922;10.742;2023-05-03T11:12:56;101880.56;;;22.91;17.75
51315;BME280;65787;59.922;10.742;2023-05-03T11:15:22;101878.34;;;23.57;18.80
51315;BME280;65787;59.922;10.742;2023-05-03T11:17:47;101875.19;;;23.65;21.03
51315;BME280;65787;59.922;10.742;2023-05-03T11:20:12;101878.00;;;23.53;17.03
51315;BME280;65787;59.922;10.742;2023-05-03T11:22:38;101883.13;;;23.50;17.42
51315;BME280;65787;59.922;10.742;2023-05-03T11:25:03;101875.41;;;23.18;18.04
51315;BME280;65787;59.922;10.742;2023-05-03T11:27:29;101882.59;;;22.84;18.68
51315;BME280;65787;59.922;10.742;2023-05-03T11:29:54;101893.94;;;22.52;19.14
51315;BME280;65787;59.922;10.742;2023-05-03T11:32:25;101884.06;;;22.27;18.14
51315;BME280;65787;59.922;10.742;2023-05-03T11:34:50;101888.88;;;22.01;17.71
51315;BME280;65787;59.922;10.742;2023-05-03T11:37:16;101892.66;;;21.89;18.32
51315;BME280;65787;59.922;10.742;2023-05-03T11:39:41;101887.53;;;21.80;19.59
51315;BME280;65787;59.922;10.742;2023-05-03T11:42:06;101890.81;;;21.71;19.82
51315;BME280;65787;59.922;10.742;2023-05-03T11:44:32;101893.97;;;21.56;20.02
51315;BME280;65787;59.922;10.742;2023-05-03T11:46:58;101891.81;;;21.46;18.74
51315;BME280;65787;59.922;10.742;2023-05-03T11:49:23;101888.63;;;21.31;17.97
51315;BME280;65787;59.922;10.742;2023-05-03T11:51:49;101889.31;;;21.26;19.25
51315;BME280;65787;59.922;10.742;2023-05-03T11:54:14;101888.72;;;21.24;19.22
51315;BME280;65787;59.922;10.742;2023-05-03T11:56:41;101892.72;;;21.40;20.51
51315;BME280;65787;59.922;10.742;2023-05-03T11:59:07;101899.00;;;21.40;22.36
51315;BME280;65787;59.922;10.742;2023-05-03T12:01:32;101901.97;;;21.39;20.93
51315;BME280;65787;59.922;10.742;2023-05-03T12:03:58;101910.13;;;21.45;20.86
51315;BME280;65787;59.922;10.742;2023-05-03T12:06:25;101921.91;;;21.39;21.47
51315;BME280;65787;59.922;10.742;2023-05-03T12:08:51;101924.94;;;21.19;20.92
51315;BME280;65787;59.922;10.742;2023-05-03T12:11:17;101919.91;;;20.98;20.61
51315;BME280;65787;59.922;10.742;2023-05-03T12:13:42;101908.63;;;20.94;20.74
51315;BME280;65787;59.922;10.742;2023-05-03T12:16:08;101909.06;;;21.10;21.27
51315;BME280;65787;59.922;10.742;2023-05-03T12:18:53;101907.16;;;21.29;19.82
51315;BME280;65787;59.922;10.742;2023-05-03T12:21:21;101905.44;;;21.64;20.90
51315;BME280;65787;59.922;10.742;2023-05-03T12:23:47;101904.78;;;21.81;19.73
51315;BME280;65787;59.922;10.742;2023-05-03T12:26:14;101903.00;;;21.87;19.39
51315;BME280;65787;59.922;10.742;2023-05-03T12:28:39;101908.16;;;22.07;18.30
51315;BME280;65787;59.922;10.742;2023-05-03T12:31:05;101893.59;;;22.36;18.56
51315;BME280;65787;59.922;10.742;2023-05-03T12:33:30;101891.22;;;22.52;18.20
51315;BME280;65787;59.922;10.742;2023-05-03T12:35:56;101894.41;;;22.72;17.39
51315;BME280;65787;59.922;10.742;2023-05-03T12:38:22;101892.09;;;23.05;17.99
51315;BME280;65787;59.922;10.742;2023-05-03T12:40:47;101889.72;;;23.66;17.78
51315;BME280;65787;59.922;10.742;2023-05-03T12:43:13;101890.72;;;24.22;16.56
51315;BME280;65787;59.922;10.742;2023-05-03T12:45:38;101884.84;;;24.91;17.01
51315;BME280;65787;59.922;10.742;2023-05-03T12:48:03;101889.78;;;25.61;16.49
51315;BME280;65787;59.922;10.742;2023-05-03T12:50:29;101901.44;;;26.33;15.90
51315;BME280;65787;59.922;10.742;2023-05-03T12:52:54;101893.72;;;26.72;14.39
51315;BME280;65787;59.922;10.742;2023-05-03T12:55:20;101895.53;;;27.09;14.38
51315;BME280;65787;59.922;10.742;2023-05-03T12:57:45;101891.28;;;27.59;15.79